Disclaimer

Please do not use the information listed here in-flight or in-navigation, as they are not provided to us by the airports but are provided by volunteers, so they might be outdated.

Search


Regions


Airport information page

Radio informations:
Tower (TWR) - 118.5 MHz
OPS - 122.5 MHz
Ground (GND) - 121.9 MHz
Approach (APP) - 119.25 MHz

Airport informations:
Latitude: 23° 13' 41.42" S
Longitude: 045° 51' 45.86" W
Elevation: 2120 feet - 646 meters
Operating hours: 24 hour operations
Operating agency: Military-civil joint use airport
Timezone: UTC-3(-2DT)
Fuel: Jet A1, without icing nhibitor.

100/130 octane gasoline, leaded, MIL-L-5572F (GREEN)

Runway information:
15/33 - 8779 x 148 feet< - >2676 x 45 meters

Recent METARs:
SBSJ 171900Z 05006KT 340V130 9999 FEW030 29/18 Q1016
SBSJ 172000Z 06006KT 9999 FEW030 28/18 Q1016
SBSJ 172000Z 06006KT 9999 FEW030 28/18 Q1016

Airport on the map: